Harrisville, Ohio
Current Conditions -  °F | °C
As of 7:56 AM on Friday 19 Dec 2014 (Local Time) from KHLG Reporting Station
Overcast Overcast  
Wind Chill: 20°   Ceiling: 1000
Heat Index: 27°   Visibility: 8mi
Dew Point: 23°   Wind: 6mph
Humidity: 85%   Direction: 260°W
Pressure: 30.2"   Gusts: NA
Location:  40.18°N, 80.89°W
Report Text: KHLG 191256Z 26005KT 8SM BKN010 OVC029 M03/M05 A3020 RMK AO2 T10281050
Loading
Personal Weather Stations






























Interactive Weather Map New forecast layout! Learn more

10-Day Weather Forecast

Advertisements
Track Severe Weather on mobile